Time;durP1;ratioP1;P1;durP2;ratioP2;P2;SDS_P1;SDS_P2;PMS_P1;PMS_P2;Temp;Humidity;BMP_temperature;BMP_pressure;BME280_temperature;BME280_humidity;BME280_pressure;Samples;Min_cycle;Max_cycle;Signal;HPM_P1;HPM_P2
2023/08/16 00:00:31;;;;;;;11.07;3.70;;;;;;;;;;5040127;28;20634;-67
2023/08/16 00:02:57;;;;;;;9.93;4.40;;;;;;;;;;5057177;28;20537;-66
2023/08/16 00:05:24;;;;;;;5.70;3.97;;;;;;;;;;5056620;28;20657;-66
2023/08/16 00:07:50;;;;;;;6.20;3.67;;;;;;;;;;5056437;28;20672;-66
2023/08/16 00:10:16;;;;;;;10.40;4.60;;;;;;;;;;5038187;28;20269;-67
2023/08/16 00:12:42;;;;;;;18.67;4.63;;;;;;;;;;5038280;28;20641;-64
2023/08/16 00:15:08;;;;;;;12.83;5.60;;;;;;;;;;5038260;28;20186;-65
2023/08/16 00:17:34;;;;;;;9.17;5.30;;;;;;;;;;5056095;28;20211;-64
2023/08/16 00:20:00;;;;;;;11.13;4.90;;;;;;;;;;5056099;28;20170;-65
2023/08/16 00:22:26;;;;;;;6.10;5.00;;;;;;;;;;5038066;28;20189;-64
2023/08/16 00:24:52;;;;;;;6.80;4.30;;;;;;;;;;5056028;28;20179;-64
2023/08/16 00:27:18;;;;;;;12.07;4.57;;;;;;;;;;5038065;28;20293;-65
2023/08/16 00:29:46;;;;;;;9.07;4.43;;;;;;;;;;5055959;28;20528;-65
2023/08/16 00:32:12;;;;;;;11.60;4.73;;;;;;;;;;5055820;28;20228;-65
2023/08/16 00:34:38;;;;;;;10.10;5.00;;;;;;;;;;5055144;28;20709;-64
2023/08/16 00:37:04;;;;;;;8.43;4.90;;;;;;;;;;5038328;28;20329;-65
2023/08/16 00:39:30;;;;;;;9.25;5.25;;;;;;;;;;5054735;28;20412;-65
2023/08/16 00:41:56;;;;;;;5.67;4.37;;;;;;;;;;5037786;28;20202;-64
2023/08/16 00:44:22;;;;;;;10.47;4.97;;;;;;;;;;5054521;28;20376;-65
2023/08/16 00:46:48;;;;;;;7.70;4.50;;;;;;;;;;5036549;28;20382;-64
2023/08/16 00:49:14;;;;;;;8.30;4.70;;;;;;;;;;5056116;28;20490;-64
2023/08/16 00:51:40;;;;;;;7.93;5.17;;;;;;;;;;5055809;28;20185;-65
2023/08/16 00:54:06;;;;;;;8.80;4.30;;;;;;;;;;5055582;28;20213;-64
2023/08/16 00:56:33;;;;;;;8.40;4.63;;;;;;;;;;5055236;28;20599;-64
2023/08/16 00:58:59;;;;;;;6.20;4.53;;;;;;;;;;5037345;28;20202;-65
2023/08/16 01:01:25;;;;;;;8.00;4.27;;;;;;;;;;5055068;28;20179;-64
2023/08/16 01:03:51;;;;;;;7.57;4.20;;;;;;;;;;5037370;28;20182;-64
2023/08/16 01:06:17;;;;;;;6.07;3.87;;;;;;;;;;5038174;28;20628;-64
2023/08/16 01:08:43;;;;;;;6.63;4.50;;;;;;;;;;5055385;28;20201;-64
2023/08/16 01:11:24;;;;;;;9.93;4.93;;;;;;;;;;5055230;28;20279;-64
2023/08/16 01:14:08;;;;;;;10.33;5.00;;;;;;;;;;5055136;28;20183;-64
2023/08/16 01:16:34;;;;;;;10.50;4.70;;;;;;;;;;5054896;28;20182;-64
2023/08/16 01:19:01;;;;;;;10.48;5.30;;;;;;;;;;5053770;28;20917;-64
2023/08/16 01:21:28;;;;;;;6.90;4.90;;;;;;;;;;5054844;28;20183;-65
2023/08/16 01:24:07;;;;;;;9.75;5.40;;;;;;;;;;5053680;28;20851;-64
2023/08/16 01:26:34;;;;;;;8.33;4.90;;;;;;;;;;5037640;28;20162;-64
2023/08/16 01:29:01;;;;;;;10.00;5.40;;;;;;;;;;5054818;28;20174;-64
2023/08/16 01:31:27;;;;;;;10.97;6.13;;;;;;;;;;5055036;28;20178;-64
2023/08/16 01:33:53;;;;;;;8.80;5.33;;;;;;;;;;5055128;28;20331;-64
2023/08/16 01:36:19;;;;;;;9.70;5.60;;;;;;;;;;5054622;28;20187;-64
2023/08/16 01:38:45;;;;;;;10.00;5.60;;;;;;;;;;5054387;28;20206;-64
2023/08/16 01:41:41;;;;;;;11.83;5.60;;;;;;;;;;5036578;28;20183;-64
2023/08/16 01:44:08;;;;;;;10.30;5.43;;;;;;;;;;5041821;28;20206;-64
2023/08/16 01:46:34;;;;;;;8.57;5.33;;;;;;;;;;5036476;28;20211;-64
2023/08/16 01:49:01;;;;;;;8.83;5.30;;;;;;;;;;5054422;28;20249;-64
2023/08/16 01:51:27;;;;;;;9.90;5.70;;;;;;;;;;5054390;28;20194;-64
2023/08/16 01:53:53;;;;;;;9.77;5.83;;;;;;;;;;5054740;28;20530;-65
2023/08/16 01:56:20;;;;;;;8.00;4.93;;;;;;;;;;5054279;28;20655;-64
2023/08/16 01:58:46;;;;;;;7.37;4.90;;;;;;;;;;5054042;28;20218;-65
2023/08/16 02:01:13;;;;;;;11.27;4.93;;;;;;;;;;5054343;28;20696;-65
2023/08/16 02:03:39;;;;;;;7.53;5.00;;;;;;;;;;5054184;28;20521;-64
2023/08/16 02:06:05;;;;;;;7.47;5.33;;;;;;;;;;5037166;28;20248;-64
2023/08/16 02:08:31;;;;;;;9.57;5.20;;;;;;;;;;5057159;28;20256;-64
2023/08/16 02:10:56;;;;;;;10.23;5.50;;;;;;;;;;5054811;28;20583;-64
2023/08/16 02:13:22;;;;;;;8.23;5.23;;;;;;;;;;5053817;28;20664;-64
2023/08/16 02:15:48;;;;;;;8.23;4.83;;;;;;;;;;5054014;28;20237;-64
2023/08/16 02:18:14;;;;;;;8.90;5.63;;;;;;;;;;5053875;28;20206;-64
2023/08/16 02:20:41;;;;;;;10.57;5.30;;;;;;;;;;5053883;28;20175;-64
2023/08/16 02:23:08;;;;;;;7.30;5.10;;;;;;;;;;5035893;28;20183;-65
2023/08/16 02:25:34;;;;;;;6.47;4.87;;;;;;;;;;5054147;28;20201;-64
2023/08/16 02:28:00;;;;;;;13.40;4.93;;;;;;;;;;5053663;28;20659;-64
2023/08/16 02:30:26;;;;;;;8.80;4.80;;;;;;;;;;5054066;28;20183;-64
2023/08/16 02:32:53;;;;;;;8.03;5.10;;;;;;;;;;5035786;28;20182;-65
2023/08/16 02:35:19;;;;;;;11.17;5.53;;;;;;;;;;5053800;28;20244;-65
2023/08/16 02:37:45;;;;;;;7.40;5.27;;;;;;;;;;5053588;28;20217;-65
2023/08/16 02:40:11;;;;;;;7.77;5.40;;;;;;;;;;5035639;28;20178;-65
2023/08/16 02:42:38;;;;;;;7.10;5.30;;;;;;;;;;5035687;28;20221;-65
2023/08/16 02:45:04;;;;;;;8.40;5.00;;;;;;;;;;5053609;28;20170;-65
2023/08/16 02:47:30;;;;;;;8.00;5.27;;;;;;;;;;5053322;28;20194;-65
2023/08/16 02:49:56;;;;;;;8.60;5.67;;;;;;;;;;5035450;28;20175;-65
2023/08/16 02:52:22;;;;;;;10.63;5.93;;;;;;;;;;5053280;28;20532;-65
2023/08/16 02:54:48;;;;;;;10.13;5.73;;;;;;;;;;5053416;28;20175;-65
2023/08/16 02:57:16;;;;;;;8.30;5.70;;;;;;;;;;5053195;28;20352;-65
2023/08/16 02:59:43;;;;;;;12.20;5.93;;;;;;;;;;5053266;28;20201;-65
2023/08/16 03:02:09;;;;;;;7.70;5.73;;;;;;;;;;5053433;28;20257;-64
2023/08/16 03:04:39;;;;;;;8.50;5.73;;;;;;;;;;5053807;28;20255;-64
2023/08/16 03:07:09;;;;;;;10.47;5.77;;;;;;;;;;5053230;28;20186;-64
2023/08/16 03:09:35;;;;;;;9.73;5.67;;;;;;;;;;5053251;28;20320;-65
2023/08/16 03:12:01;;;;;;;9.40;5.20;;;;;;;;;;5053107;28;20196;-64
2023/08/16 03:14:28;;;;;;;12.37;6.30;;;;;;;;;;5053198;28;20262;-65
2023/08/16 03:16:54;;;;;;;7.93;5.27;;;;;;;;;;5052911;28;20194;-65
2023/08/16 03:19:20;;;;;;;9.27;5.53;;;;;;;;;;5052878;28;20285;-65
2023/08/16 03:21:46;;;;;;;8.70;5.43;;;;;;;;;;5053032;28;20217;-66
2023/08/16 03:24:12;;;;;;;9.43;6.37;;;;;;;;;;5052929;28;20181;-64
2023/08/16 03:26:38;;;;;;;10.27;6.17;;;;;;;;;;5053126;28;20371;-68
2023/08/16 03:29:04;;;;;;;11.10;5.80;;;;;;;;;;5053714;28;20639;-64
2023/08/16 03:31:30;;;;;;;11.77;7.27;;;;;;;;;;5053591;28;20644;-64
2023/08/16 03:33:56;;;;;;;13.93;6.93;;;;;;;;;;5053350;28;20179;-67
2023/08/16 03:36:22;;;;;;;15.67;6.80;;;;;;;;;;5053011;28;20182;-69
2023/08/16 03:38:48;;;;;;;12.37;6.10;;;;;;;;;;5052638;28;20281;-64
2023/08/16 03:41:14;;;;;;;8.20;6.70;;;;;;;;;;5053249;28;20706;-66
2023/08/16 03:43:40;;;;;;;11.23;6.73;;;;;;;;;;5034746;28;20189;-65
2023/08/16 03:46:07;;;;;;;9.30;5.27;;;;;;;;;;5053000;28;20170;-64
2023/08/16 03:48:33;;;;;;;15.13;5.47;;;;;;;;;;5052623;28;20205;-64
2023/08/16 03:50:59;;;;;;;7.50;5.27;;;;;;;;;;5052956;28;20178;-64
2023/08/16 03:53:24;;;;;;;13.13;5.27;;;;;;;;;;5034880;28;20179;-66
2023/08/16 03:55:57;;;;;;;10.80;5.50;;;;;;;;;;5034725;28;20185;-64
2023/08/16 03:58:23;;;;;;;7.67;4.80;;;;;;;;;;5052346;28;20641;-64
2023/08/16 04:00:50;;;;;;;8.00;5.23;;;;;;;;;;5052424;28;20210;-64
2023/08/16 04:03:16;;;;;;;9.30;5.40;;;;;;;;;;5052883;28;20179;-64
2023/08/16 04:05:42;;;;;;;6.37;5.00;;;;;;;;;;5052278;28;20607;-64
2023/08/16 04:08:09;;;;;;;6.00;4.80;;;;;;;;;;5052709;28;20202;-67
2023/08/16 04:10:35;;;;;;;7.00;5.20;;;;;;;;;;5034768;28;20214;-63
2023/08/16 04:13:01;;;;;;;8.27;4.77;;;;;;;;;;5052660;28;20185;-65
2023/08/16 04:15:27;;;;;;;9.00;5.00;;;;;;;;;;5052448;28;20191;-65
2023/08/16 04:17:54;;;;;;;7.70;5.00;;;;;;;;;;5052438;28;20268;-65
2023/08/16 04:20:20;;;;;;;7.63;5.17;;;;;;;;;;5052821;28;20535;-64
2023/08/16 04:22:46;;;;;;;11.83;5.13;;;;;;;;;;5052992;28;20209;-65
2023/08/16 04:25:12;;;;;;;7.83;5.17;;;;;;;;;;5052302;28;20570;-65
2023/08/16 04:27:38;;;;;;;8.97;4.80;;;;;;;;;;5052530;28;20201;-65
2023/08/16 04:30:05;;;;;;;7.60;5.10;;;;;;;;;;5052922;28;20297;-65
2023/08/16 04:32:31;;;;;;;8.40;4.60;;;;;;;;;;5052206;28;20185;-65
2023/08/16 04:34:57;;;;;;;12.87;5.70;;;;;;;;;;5035679;28;20178;-64
2023/08/16 04:37:22;;;;;;;10.13;5.47;;;;;;;;;;5056346;28;20280;-65
2023/08/16 04:39:48;;;;;;;11.17;5.93;;;;;;;;;;5056234;28;20210;-65
2023/08/16 04:42:15;;;;;;;8.97;5.83;;;;;;;;;;5038130;28;20182;-64
2023/08/16 04:44:41;;;;;;;8.90;6.30;;;;;;;;;;5055833;28;20175;-65
2023/08/16 04:47:07;;;;;;;17.10;6.97;;;;;;;;;;5056180;28;20245;-65
2023/08/16 04:49:33;;;;;;;12.10;7.57;;;;;;;;;;5056066;28;20664;-65
2023/08/16 04:51:59;;;;;;;7.70;6.83;;;;;;;;;;5055712;28;20257;-65
2023/08/16 04:54:25;;;;;;;10.23;6.33;;;;;;;;;;5055543;28;20186;-65
2023/08/16 04:56:51;;;;;;;6.70;5.50;;;;;;;;;;5055669;28;20210;-65
2023/08/16 04:59:17;;;;;;;7.03;6.20;;;;;;;;;;5037604;28;20237;-65
2023/08/16 05:01:44;;;;;;;6.23;5.50;;;;;;;;;;5055662;28;20632;-64
2023/08/16 05:04:10;;;;;;;7.30;5.80;;;;;;;;;;5055629;28;20632;-65
2023/08/16 05:06:36;;;;;;;6.47;5.80;;;;;;;;;;5037257;28;20179;-65
2023/08/16 05:09:03;;;;;;;6.77;5.63;;;;;;;;;;5055331;28;20189;-64
2023/08/16 05:11:32;;;;;;;8.37;6.17;;;;;;;;;;5055525;28;20186;-65
2023/08/16 05:13:58;;;;;;;6.40;5.77;;;;;;;;;;5055282;28;20190;-65
2023/08/16 05:16:24;;;;;;;10.20;6.90;;;;;;;;;;5055122;28;20175;-65
2023/08/16 05:18:52;;;;;;;51.03;18.60;;;;;;;;;;5055079;28;20238;-67
2023/08/16 05:21:18;;;;;;;67.13;22.80;;;;;;;;;;5055023;28;20693;-65
2023/08/16 05:23:44;;;;;;;60.83;22.47;;;;;;;;;;5055044;28;20174;-66
2023/08/16 05:26:10;;;;;;;44.53;19.67;;;;;;;;;;5055006;28;20224;-65
2023/08/16 05:28:36;;;;;;;30.57;13.63;;;;;;;;;;5036932;28;20201;-65
2023/08/16 05:31:07;;;;;;;21.23;11.70;;;;;;;;;;5037169;28;20187;-65
2023/08/16 05:33:33;;;;;;;27.47;12.47;;;;;;;;;;5037084;28;20269;-65
2023/08/16 05:35:58;;;;;;;21.00;10.87;;;;;;;;;;5037133;28;20289;-67
2023/08/16 05:38:25;;;;;;;17.47;10.00;;;;;;;;;;5054810;28;20578;-66
2023/08/16 05:40:51;;;;;;;16.83;8.97;;;;;;;;;;5055246;28;20167;-66
2023/08/16 05:43:17;;;;;;;13.47;9.33;;;;;;;;;;5054813;28;20185;-66
2023/08/16 05:45:43;;;;;;;14.63;8.50;;;;;;;;;;5054189;28;20197;-65
2023/08/16 05:48:09;;;;;;;10.17;7.97;;;;;;;;;;5053914;28;20225;-66
2023/08/16 05:50:36;;;;;;;16.23;8.77;;;;;;;;;;5054510;28;20190;-66
2023/08/16 05:53:02;;;;;;;16.33;9.50;;;;;;;;;;5054499;28;20202;-66
2023/08/16 05:55:28;;;;;;;16.53;9.87;;;;;;;;;;5054868;28;20186;-66
2023/08/16 05:57:54;;;;;;;21.13;11.20;;;;;;;;;;5054118;28;20301;-65
2023/08/16 06:00:20;;;;;;;22.57;12.10;;;;;;;;;;5054216;28;20174;-66
2023/08/16 06:02:46;;;;;;;23.10;11.97;;;;;;;;;;5054115;28;20220;-66
2023/08/16 06:05:12;;;;;;;22.27;13.57;;;;;;;;;;5055618;22;20234;-70
2023/08/16 06:07:38;;;;;;;23.47;12.93;;;;;;;;;;5034539;28;20155;-69
2023/08/16 06:10:05;;;;;;;16.93;10.00;;;;;;;;;;5034868;28;20198;-70
2023/08/16 06:12:32;;;;;;;16.00;10.63;;;;;;;;;;5017108;28;20207;-70
2023/08/16 06:14:58;;;;;;;14.37;9.47;;;;;;;;;;5034489;28;20253;-70
2023/08/16 06:17:24;;;;;;;13.23;9.87;;;;;;;;;;5034641;28;20212;-69
2023/08/16 06:19:50;;;;;;;15.93;9.70;;;;;;;;;;5034943;28;20285;-69
2023/08/16 06:22:16;;;;;;;15.80;9.90;;;;;;;;;;5034389;28;20199;-70
2023/08/16 06:24:42;;;;;;;17.33;9.63;;;;;;;;;;5034966;28;20383;-70
2023/08/16 06:27:08;;;;;;;15.63;10.27;;;;;;;;;;5034527;28;20637;-70
2023/08/16 06:29:35;;;;;;;20.13;10.07;;;;;;;;;;5034485;28;20211;-70
2023/08/16 06:32:01;;;;;;;15.50;9.37;;;;;;;;;;5033669;28;20179;-71
2023/08/16 06:34:27;;;;;;;16.23;10.13;;;;;;;;;;5034126;28;20187;-70
2023/08/16 06:36:53;;;;;;;13.80;9.00;;;;;;;;;;5050035;28;20686;-70
2023/08/16 06:39:19;;;;;;;14.70;9.13;;;;;;;;;;5049702;28;20207;-70
2023/08/16 06:41:46;;;;;;;13.63;8.33;;;;;;;;;;5025747;28;20179;-70
2023/08/16 06:44:12;;;;;;;8.30;6.43;;;;;;;;;;5034071;28;20189;-70
2023/08/16 06:46:37;;;;;;;7.80;6.53;;;;;;;;;;5016391;28;20282;-70
2023/08/16 06:49:03;;;;;;;10.30;5.90;;;;;;;;;;5033732;28;20179;-70
2023/08/16 06:51:29;;;;;;;9.57;5.23;;;;;;;;;;5034141;28;20707;-70
2023/08/16 06:53:55;;;;;;;9.70;5.23;;;;;;;;;;5034096;28;20237;-70
2023/08/16 06:56:21;;;;;;;9.53;4.87;;;;;;;;;;5034171;28;20195;-70
2023/08/16 06:58:47;;;;;;;7.97;4.73;;;;;;;;;;5015562;28;20206;-70
2023/08/16 07:01:13;;;;;;;6.80;4.73;;;;;;;;;;5015793;28;20645;-70
2023/08/16 07:03:39;;;;;;;8.03;4.83;;;;;;;;;;5016462;28;20179;-70
2023/08/16 07:06:05;;;;;;;6.07;5.33;;;;;;;;;;5033796;28;20598;-70
2023/08/16 07:08:31;;;;;;;8.27;5.03;;;;;;;;;;5033772;28;20186;-70
2023/08/16 07:10:57;;;;;;;5.57;4.47;;;;;;;;;;5033655;28;20179;-70
2023/08/16 07:13:23;;;;;;;7.90;4.37;;;;;;;;;;5033456;28;20185;-70
2023/08/16 07:15:49;;;;;;;5.80;5.20;;;;;;;;;;5033704;28;20210;-70
2023/08/16 07:18:15;;;;;;;6.23;5.33;;;;;;;;;;5034145;28;20234;-70
2023/08/16 07:20:41;;;;;;;7.10;4.90;;;;;;;;;;5033851;28;20668;-70
2023/08/16 07:23:07;;;;;;;6.20;5.27;;;;;;;;;;5033778;28;20641;-70
2023/08/16 07:25:33;;;;;;;8.57;5.10;;;;;;;;;;5034440;28;20673;-70
2023/08/16 07:27:59;;;;;;;5.73;4.97;;;;;;;;;;5033721;28;20187;-70
2023/08/16 07:30:25;;;;;;;7.73;5.33;;;;;;;;;;5034098;28;20175;-70
2023/08/16 07:32:51;;;;;;;7.47;5.23;;;;;;;;;;5033171;28;20182;-70
2023/08/16 07:35:17;;;;;;;5.67;4.40;;;;;;;;;;5033276;28;20264;-70
2023/08/16 07:37:43;;;;;;;6.13;4.97;;;;;;;;;;5033082;28;20179;-69
2023/08/16 07:40:10;;;;;;;4.60;4.20;;;;;;;;;;5033107;28;20201;-70
2023/08/16 07:42:36;;;;;;;6.60;4.53;;;;;;;;;;5015466;28;20189;-70
2023/08/16 07:45:03;;;;;;;5.93;4.30;;;;;;;;;;5033943;28;20277;-71
2023/08/16 07:47:29;;;;;;;7.07;4.17;;;;;;;;;;5034826;28;20182;-70
2023/08/16 07:49:55;;;;;;;8.07;3.97;;;;;;;;;;5035297;28;20179;-70
2023/08/16 07:52:21;;;;;;;6.03;3.70;;;;;;;;;;5015379;28;20209;-70
2023/08/16 07:54:47;;;;;;;7.30;3.67;;;;;;;;;;5032812;28;20183;-71
2023/08/16 07:57:13;;;;;;;4.60;3.10;;;;;;;;;;5032797;28;20175;-72
2023/08/16 07:59:39;;;;;;;5.83;3.30;;;;;;;;;;5032505;28;20203;-70
2023/08/16 08:02:08;;;;;;;5.27;2.93;;;;;;;;;;5032591;28;20250;-70
2023/08/16 08:04:34;;;;;;;5.43;2.87;;;;;;;;;;5032585;28;20171;-70
2023/08/16 08:07:00;;;;;;;5.10;3.07;;;;;;;;;;5032620;28;20195;-70
2023/08/16 08:09:26;;;;;;;7.27;3.13;;;;;;;;;;5033272;28;20182;-70
2023/08/16 08:11:52;;;;;;;3.13;2.60;;;;;;;;;;5036433;28;20222;-70
2023/08/16 08:14:18;;;;;;;4.00;2.70;;;;;;;;;;5036279;28;20282;-71
2023/08/16 08:16:45;;;;;;;3.77;2.80;;;;;;;;;;5036151;28;20202;-71
2023/08/16 08:19:11;;;;;;;5.27;3.00;;;;;;;;;;5018419;28;20221;-71
2023/08/16 08:21:37;;;;;;;4.90;2.97;;;;;;;;;;5036066;28;20254;-71
2023/08/16 08:24:03;;;;;;;4.97;2.90;;;;;;;;;;5036040;28;20615;-71
2023/08/16 08:26:30;;;;;;;6.40;3.10;;;;;;;;;;5035937;28;20386;-71
2023/08/16 08:28:56;;;;;;;6.53;2.93;;;;;;;;;;5018291;28;20179;-71
2023/08/16 08:31:23;;;;;;;4.83;3.13;;;;;;;;;;5036179;28;20744;-71
2023/08/16 08:33:49;;;;;;;6.13;3.43;;;;;;;;;;5018102;28;20281;-71
2023/08/16 08:36:15;;;;;;;3.57;3.00;;;;;;;;;;5017917;28;20203;-71
2023/08/16 08:38:41;;;;;;;4.27;3.20;;;;;;;;;;5036212;28;20293;-71
2023/08/16 08:41:08;;;;;;;9.27;3.07;;;;;;;;;;5018719;28;20189;-71
2023/08/16 08:43:35;;;;;;;6.03;2.87;;;;;;;;;;5035981;28;20625;-71
2023/08/16 08:46:01;;;;;;;6.10;3.20;;;;;;;;;;5035855;28;20214;-71
2023/08/16 08:48:27;;;;;;;4.50;3.10;;;;;;;;;;5017846;28;20182;-71
2023/08/16 08:50:54;;;;;;;3.97;3.10;;;;;;;;;;5035781;28;20210;-71
2023/08/16 08:53:23;;;;;;;5.10;2.77;;;;;;;;;;5035807;28;20590;-71
2023/08/16 08:55:54;;;;;;;3.73;3.10;;;;;;;;;;5017606;28;20259;-71
2023/08/16 08:58:20;;;;;;;4.60;3.07;;;;;;;;;;5035315;28;20689;-71
2023/08/16 09:00:46;;;;;;;5.70;3.40;;;;;;;;;;5017744;28;20179;-71
2023/08/16 09:03:13;;;;;;;4.23;2.97;;;;;;;;;;5035477;28;20171;-71
2023/08/16 09:05:42;;;;;;;3.90;2.80;;;;;;;;;;5035011;28;20647;-71
2023/08/16 09:08:09;;;;;;;4.47;3.07;;;;;;;;;;5035177;28;20179;-71
2023/08/16 09:10:39;;;;;;;9.77;3.20;;;;;;;;;;5035022;28;20181;-71
2023/08/16 09:13:06;;;;;;;5.87;3.40;;;;;;;;;;5017245;28;20186;-71
2023/08/16 09:15:32;;;;;;;3.47;3.10;;;;;;;;;;5017123;28;20268;-71
2023/08/16 09:18:07;;;;;;;6.37;3.07;;;;;;;;;;5035088;28;20266;-71
2023/08/16 09:20:33;;;;;;;6.03;3.30;;;;;;;;;;5034944;28;20249;-71
2023/08/16 09:22:59;;;;;;;9.93;3.43;;;;;;;;;;5017155;28;20201;-71
2023/08/16 09:25:26;;;;;;;6.13;3.20;;;;;;;;;;5034851;28;20193;-71
2023/08/16 09:27:52;;;;;;;5.23;3.40;;;;;;;;;;5034993;28;20322;-71
2023/08/16 09:30:18;;;;;;;8.03;3.93;;;;;;;;;;5034984;28;20642;-71
2023/08/16 09:32:47;;;;;;;5.70;3.10;;;;;;;;;;5034787;28;20167;-71
2023/08/16 09:35:14;;;;;;;5.40;2.83;;;;;;;;;;5035485;28;20210;-71
2023/08/16 09:37:40;;;;;;;5.03;2.97;;;;;;;;;;5035301;28;20242;-71
2023/08/16 09:40:06;;;;;;;4.10;2.63;;;;;;;;;;5034961;28;20183;-71
2023/08/16 09:42:35;;;;;;;4.47;2.43;;;;;;;;;;5035227;28;20175;-71
2023/08/16 09:45:01;;;;;;;4.13;2.30;;;;;;;;;;5017687;28;20629;-71
2023/08/16 09:47:29;;;;;;;5.13;2.70;;;;;;;;;;5017085;28;20195;-71
2023/08/16 09:49:55;;;;;;;6.33;2.97;;;;;;;;;;5017220;28;20179;-71
2023/08/16 09:52:21;;;;;;;3.50;3.17;;;;;;;;;;5042788;28;20262;-71
2023/08/16 09:54:49;;;;;;;5.43;3.10;;;;;;;;;;5033604;28;20703;-71
2023/08/16 09:57:15;;;;;;;4.03;2.77;;;;;;;;;;5025996;28;20179;-71
2023/08/16 09:59:42;;;;;;;2.90;2.60;;;;;;;;;;5016858;28;20756;-71
2023/08/16 10:02:10;;;;;;;3.57;2.70;;;;;;;;;;5034966;28;20183;-71
2023/08/16 10:04:36;;;;;;;4.20;2.57;;;;;;;;;;5034932;28;20175;-71
2023/08/16 10:07:02;;;;;;;3.77;2.50;;;;;;;;;;5034557;28;20183;-71
2023/08/16 10:09:29;;;;;;;3.80;2.60;;;;;;;;;;5034120;28;20229;-71
2023/08/16 10:11:55;;;;;;;3.03;2.67;;;;;;;;;;5016353;28;20179;-71
2023/08/16 10:14:21;;;;;;;5.87;2.90;;;;;;;;;;5034041;28;20175;-71
2023/08/16 10:16:50;;;;;;;6.67;2.77;;;;;;;;;;5016232;28;20611;-71
2023/08/16 10:19:17;;;;;;;4.87;2.90;;;;;;;;;;5016271;28;20207;-71
2023/08/16 10:21:44;;;;;;;4.40;2.93;;;;;;;;;;5034063;28;20186;-71
2023/08/16 10:24:10;;;;;;;3.10;2.80;;;;;;;;;;5034414;28;20186;-71
2023/08/16 10:26:38;;;;;;;6.13;3.57;;;;;;;;;;5033966;28;20191;-72
2023/08/16 10:29:07;;;;;;;4.17;3.03;;;;;;;;;;5033751;28;20175;-72
2023/08/16 10:31:35;;;;;;;4.73;3.47;;;;;;;;;;5033872;28;20184;-71
2023/08/16 10:34:02;;;;;;;3.97;3.47;;;;;;;;;;5015397;28;20206;-71
2023/08/16 10:36:28;;;;;;;5.77;4.20;;;;;;;;;;5016188;28;20631;-72
2023/08/16 10:38:55;;;;;;;7.07;4.33;;;;;;;;;;5035689;28;20544;-71
2023/08/16 10:41:21;;;;;;;5.33;4.43;;;;;;;;;;5040951;28;20587;-71
2023/08/16 10:43:48;;;;;;;9.13;4.70;;;;;;;;;;5024543;28;20278;-70
2023/08/16 10:46:23;;;;;;;4.93;4.30;;;;;;;;;;5034060;28;20199;-71
2023/08/16 10:48:55;;;;;;;5.53;4.60;;;;;;;;;;5016015;28;20633;-70
2023/08/16 10:51:21;;;;;;;7.93;5.20;;;;;;;;;;5033963;28;20159;-71
2023/08/16 10:53:47;;;;;;;5.27;4.77;;;;;;;;;;5033510;28;20684;-71
2023/08/16 10:56:13;;;;;;;5.73;5.13;;;;;;;;;;5033345;28;20231;-71
2023/08/16 10:58:52;;;;;;;6.20;4.90;;;;;;;;;;5033658;28;20199;-71
2023/08/16 11:01:19;;;;;;;5.70;5.10;;;;;;;;;;5033696;28;20175;-70
2023/08/16 11:03:46;;;;;;;5.97;4.77;;;;;;;;;;5033239;28;20257;-70
2023/08/16 11:06:13;;;;;;;5.20;4.70;;;;;;;;;;5032973;28;20213;-70
2023/08/16 11:08:41;;;;;;;6.00;4.90;;;;;;;;;;5015741;28;20256;-70
2023/08/16 11:11:07;;;;;;;7.87;5.40;;;;;;;;;;5033272;28;20186;-71
2023/08/16 11:13:33;;;;;;;6.90;5.07;;;;;;;;;;5033223;28;20179;-70
2023/08/16 11:15:59;;;;;;;7.60;5.40;;;;;;;;;;5033128;28;20638;-71
2023/08/16 11:18:32;;;;;;;6.13;5.00;;;;;;;;;;5033509;28;20235;-71
2023/08/16 11:21:01;;;;;;;9.43;6.17;;;;;;;;;;5015421;28;20183;-71
2023/08/16 11:23:38;;;;;;;6.87;5.73;;;;;;;;;;5015722;28;20198;-70
2023/08/16 11:26:05;;;;;;;6.40;5.33;;;;;;;;;;5016082;28;20203;-70
2023/08/16 11:28:32;;;;;;;9.30;6.07;;;;;;;;;;5033405;28;20260;-70
2023/08/16 11:30:58;;;;;;;9.07;7.13;;;;;;;;;;5033108;28;20684;-70
2023/08/16 11:33:25;;;;;;;6.97;5.63;;;;;;;;;;5033343;28;20237;-71
2023/08/16 11:35:53;;;;;;;8.07;5.83;;;;;;;;;;5032909;28;20190;-71
2023/08/16 11:38:19;;;;;;;7.73;5.87;;;;;;;;;;5015171;28;20207;-71
2023/08/16 11:40:48;;;;;;;7.83;5.77;;;;;;;;;;5014854;28;20179;-70
2023/08/16 11:43:14;;;;;;;6.70;5.77;;;;;;;;;;5032765;28;20246;-70
2023/08/16 11:45:40;;;;;;;9.87;6.00;;;;;;;;;;5036777;28;20222;-71
2023/08/16 11:48:06;;;;;;;7.60;6.80;;;;;;;;;;5019152;28;20183;-71
2023/08/16 11:50:36;;;;;;;9.80;7.00;;;;;;;;;;5019035;28;20273;-71
2023/08/16 11:53:03;;;;;;;10.57;8.33;;;;;;;;;;5018954;28;20214;-71
2023/08/16 11:55:30;;;;;;;12.33;8.37;;;;;;;;;;5036577;28;20202;-71
2023/08/16 11:58:03;;;;;;;11.43;9.57;;;;;;;;;;5036586;28;20210;-70
2023/08/16 12:00:29;;;;;;;16.60;11.40;;;;;;;;;;5019098;28;20566;-71
2023/08/16 12:02:56;;;;;;;14.53;10.27;;;;;;;;;;5018951;28;20175;-71
2023/08/16 12:05:23;;;;;;;12.13;9.87;;;;;;;;;;5036873;28;20222;-71
2023/08/16 12:07:53;;;;;;;13.13;9.73;;;;;;;;;;5069127;22;20316;-64
2023/08/16 12:10:23;;;;;;;12.57;8.60;;;;;;;;;;5055296;28;20189;-65
2023/08/16 12:12:52;;;;;;;16.70;8.00;;;;;;;;;;5056521;28;20184;-64
2023/08/16 12:15:18;;;;;;;9.97;8.23;;;;;;;;;;5055147;28;20179;-65
2023/08/16 12:17:44;;;;;;;10.13;8.07;;;;;;;;;;5056474;28;20195;-65
2023/08/16 12:20:10;;;;;;;11.17;7.77;;;;;;;;;;5056618;28;20290;-67
2023/08/16 12:22:36;;;;;;;13.90;8.77;;;;;;;;;;5056373;28;20181;-65
2023/08/16 12:25:02;;;;;;;11.67;8.67;;;;;;;;;;5056926;28;20175;-65
2023/08/16 12:27:28;;;;;;;13.27;10.73;;;;;;;;;;5055269;28;20618;-65
2023/08/16 12:29:54;;;;;;;13.47;10.73;;;;;;;;;;5056929;28;20261;-65
2023/08/16 12:32:20;;;;;;;12.90;9.17;;;;;;;;;;5056826;28;20201;-65
2023/08/16 12:34:46;;;;;;;13.20;9.60;;;;;;;;;;5056935;28;20209;-65
2023/08/16 12:37:12;;;;;;;10.73;8.90;;;;;;;;;;5056764;28;20202;-64
2023/08/16 12:39:38;;;;;;;11.67;8.70;;;;;;;;;;5056980;28;20205;-64
2023/08/16 12:42:04;;;;;;;13.17;8.27;;;;;;;;;;5057295;28;20178;-66
2023/08/16 12:44:30;;;;;;;16.00;8.63;;;;;;;;;;5058952;28;20206;-64
2023/08/16 12:46:56;;;;;;;11.23;9.03;;;;;;;;;;5056729;28;20178;-65
2023/08/16 12:49:22;;;;;;;10.93;7.93;;;;;;;;;;5058598;28;20206;-65
2023/08/16 12:51:48;;;;;;;6.90;6.20;;;;;;;;;;5058884;28;20242;-65
2023/08/16 12:54:14;;;;;;;6.97;6.33;;;;;;;;;;5057581;28;20178;-64
2023/08/16 12:56:40;;;;;;;8.23;6.43;;;;;;;;;;5057965;28;20198;-64
2023/08/16 12:59:06;;;;;;;7.00;6.30;;;;;;;;;;5058336;28;20209;-63
2023/08/16 13:01:32;;;;;;;8.13;6.47;;;;;;;;;;5062591;28;20270;-65
2023/08/16 13:03:58;;;;;;;6.70;6.10;;;;;;;;;;5059916;28;20191;-65
2023/08/16 13:06:25;;;;;;;9.00;5.87;;;;;;;;;;5059051;28;20189;-67
2023/08/16 13:08:51;;;;;;;7.03;6.10;;;;;;;;;;5060278;28;20210;-66
2023/08/16 13:11:17;;;;;;;5.87;5.37;;;;;;;;;;5057034;28;20182;-64
2023/08/16 13:13:43;;;;;;;7.07;6.33;;;;;;;;;;5056563;28;20269;-64
2023/08/16 13:16:09;;;;;;;7.87;5.83;;;;;;;;;;5056612;28;20187;-67
2023/08/16 13:18:35;;;;;;;5.87;5.27;;;;;;;;;;5056062;28;20260;-67
2023/08/16 13:21:01;;;;;;;10.93;4.83;;;;;;;;;;5056025;28;20214;-65
2023/08/16 13:23:30;;;;;;;6.10;5.50;;;;;;;;;;5055888;28;20202;-64
2023/08/16 13:25:57;;;;;;;6.33;5.43;;;;;;;;;;5057646;28;20179;-64
2023/08/16 13:28:23;;;;;;;7.07;6.13;;;;;;;;;;5055967;28;20291;-66
2023/08/16 13:30:49;;;;;;;7.30;6.60;;;;;;;;;;5057478;28;20217;-65
2023/08/16 13:33:16;;;;;;;6.93;6.20;;;;;;;;;;5058494;28;20653;-63
2023/08/16 13:35:43;;;;;;;7.20;6.50;;;;;;;;;;5056807;28;20195;-65
2023/08/16 13:38:09;;;;;;;9.17;8.30;;;;;;;;;;5056790;28;20205;-65
2023/08/16 13:40:36;;;;;;;8.37;7.03;;;;;;;;;;5054946;28;20179;-64
2023/08/16 13:43:02;;;;;;;8.03;6.57;;;;;;;;;;5054395;28;20178;-64
2023/08/16 13:45:29;;;;;;;8.43;7.03;;;;;;;;;;5055730;28;20206;-64
2023/08/16 13:47:59;;;;;;;10.57;9.27;;;;;;;;;;5054765;28;20194;-64
2023/08/16 13:50:25;;;;;;;11.20;10.07;;;;;;;;;;5053927;28;20277;-65
2023/08/16 13:52:52;;;;;;;10.70;9.60;;;;;;;;;;5054067;28;20671;-65
2023/08/16 13:55:18;;;;;;;11.27;10.17;;;;;;;;;;5054077;28;20182;-64
2023/08/16 13:57:47;;;;;;;11.80;9.93;;;;;;;;;;5055377;28;20621;-64
2023/08/16 14:00:13;;;;;;;14.27;9.10;;;;;;;;;;5055402;28;20214;-64
2023/08/16 14:02:40;;;;;;;16.13;14.47;;;;;;;;;;5054120;28;20190;-65
2023/08/16 14:05:06;;;;;;;16.60;11.63;;;;;;;;;;5054134;28;20182;-64
2023/08/16 14:07:35;;;;;;;15.40;11.80;;;;;;;;;;5054558;28;20242;-64
2023/08/16 14:10:01;;;;;;;11.67;9.73;;;;;;;;;;5055525;28;20659;-65
2023/08/16 14:12:27;;;;;;;13.20;11.63;;;;;;;;;;5054373;28;20319;-63
2023/08/16 14:14:53;;;;;;;17.10;12.17;;;;;;;;;;5053739;28;20178;-65
2023/08/16 14:17:19;;;;;;;12.57;11.17;;;;;;;;;;5054189;28;20191;-64
2023/08/16 14:19:45;;;;;;;11.90;10.77;;;;;;;;;;5054367;28;20199;-65
2023/08/16 14:22:11;;;;;;;12.87;9.83;;;;;;;;;;5053009;28;20182;-63
2023/08/16 14:24:37;;;;;;;12.30;10.80;;;;;;;;;;5052975;28;20669;-65
2023/08/16 14:27:03;;;;;;;19.07;11.03;;;;;;;;;;5054109;28;20197;-64
2023/08/16 14:29:30;;;;;;;10.27;9.20;;;;;;;;;;5054193;28;20236;-64
2023/08/16 14:31:55;;;;;;;11.23;10.03;;;;;;;;;;5054277;28;20183;-64
2023/08/16 14:34:21;;;;;;;9.37;7.87;;;;;;;;;;5052746;28;20285;-64